sensor_id;sensor_type;location;lat;lon;timestamp;temperature;humidity
14349;DHT22;7258;50.376;8.742;2023-05-17T00:01:06;6.90;99.90
14349;DHT22;7258;50.376;8.742;2023-05-17T00:03:11;6.90;99.90
14349;DHT22;7258;50.376;8.742;2023-05-17T00:05:14;6.80;99.90
14349;DHT22;7258;50.376;8.742;2023-05-17T00:07:21;6.80;99.90
14349;DHT22;7258;50.376;8.742;2023-05-17T00:09:42;6.80;99.90
14349;DHT22;7258;50.376;8.742;2023-05-17T00:12:03;6.80;99.90
14349;DHT22;7258;50.376;8.742;2023-05-17T00:14:11;6.70;99.90
14349;DHT22;7258;50.376;8.742;2023-05-17T00:16:18;6.70;99.90
14349;DHT22;7258;50.376;8.742;2023-05-17T00:18:21;6.70;99.90
14349;DHT22;7258;50.376;8.742;2023-05-17T00:20:24;6.60;99.90
14349;DHT22;7258;50.376;8.742;2023-05-17T00:22:28;6.60;99.90
14349;DHT22;7258;50.376;8.742;2023-05-17T00:24:31;6.60;99.90
14349;DHT22;7258;50.376;8.742;2023-05-17T00:26:35;6.50;99.90
14349;DHT22;7258;50.376;8.742;2023-05-17T00:28:38;6.50;99.90
14349;DHT22;7258;50.376;8.742;2023-05-17T00:30:42;6.50;99.90
14349;DHT22;7258;50.376;8.742;2023-05-17T00:32:52;6.40;99.90
14349;DHT22;7258;50.376;8.742;2023-05-17T00:35:07;6.40;99.90
14349;DHT22;7258;50.376;8.742;2023-05-17T00:37:31;6.40;99.90
14349;DHT22;7258;50.376;8.742;2023-05-17T00:39:36;6.40;99.90
14349;DHT22;7258;50.376;8.742;2023-05-17T00:41:40;6.30;99.90
14349;DHT22;7258;50.376;8.742;2023-05-17T00:43:44;6.30;99.90
14349;DHT22;7258;50.376;8.742;2023-05-17T00:45:47;6.30;99.90
14349;DHT22;7258;50.376;8.742;2023-05-17T00:47:53;6.20;99.90
14349;DHT22;7258;50.376;8.742;2023-05-17T00:49:57;6.20;99.90
14349;DHT22;7258;50.376;8.742;2023-05-17T00:52:04;6.10;99.90
14349;DHT22;7258;50.376;8.742;2023-05-17T00:54:08;6.10;99.90
14349;DHT22;7258;50.376;8.742;2023-05-17T00:56:11;6.10;99.90
14349;DHT22;7258;50.376;8.742;2023-05-17T00:58:15;6.10;99.90
14349;DHT22;7258;50.376;8.742;2023-05-17T01:00:18;6.00;99.90
14349;DHT22;7258;50.376;8.742;2023-05-17T01:02:22;6.00;99.90
14349;DHT22;7258;50.376;8.742;2023-05-17T01:04:28;6.00;99.90
14349;DHT22;7258;50.376;8.742;2023-05-17T01:06:32;6.00;99.90
14349;DHT22;7258;50.376;8.742;2023-05-17T01:08:35;5.90;99.90
14349;DHT22;7258;50.376;8.742;2023-05-17T01:10:43;5.90;99.90
14349;DHT22;7258;50.376;8.742;2023-05-17T01:12:59;5.90;99.90
14349;DHT22;7258;50.376;8.742;2023-05-17T01:15:09;5.80;99.90
14349;DHT22;7258;50.376;8.742;2023-05-17T01:17:19;5.80;99.90
14349;DHT22;7258;50.376;8.742;2023-05-17T01:19:44;5.80;99.90
14349;DHT22;7258;50.376;8.742;2023-05-17T01:21:58;5.80;99.90
14349;DHT22;7258;50.376;8.742;2023-05-17T01:24:15;5.80;99.90
14349;DHT22;7258;50.376;8.742;2023-05-17T01:26:35;5.80;99.90
14349;DHT22;7258;50.376;8.742;2023-05-17T01:28:39;5.80;99.90
14349;DHT22;7258;50.376;8.742;2023-05-17T01:30:46;5.70;99.90
14349;DHT22;7258;50.376;8.742;2023-05-17T01:32:54;5.70;99.90
14349;DHT22;7258;50.376;8.742;2023-05-17T01:35:00;5.70;99.90
14349;DHT22;7258;50.376;8.742;2023-05-17T01:37:06;5.60;99.90
14349;DHT22;7258;50.376;8.742;2023-05-17T01:39:14;5.60;99.90
14349;DHT22;7258;50.376;8.742;2023-05-17T01:41:27;5.60;99.90
14349;DHT22;7258;50.376;8.742;2023-05-17T01:43:44;5.50;99.90
14349;DHT22;7258;50.376;8.742;2023-05-17T01:46:10;5.50;99.90
14349;DHT22;7258;50.376;8.742;2023-05-17T01:48:20;5.50;99.90
14349;DHT22;7258;50.376;8.742;2023-05-17T01:50:30;5.50;99.90
14349;DHT22;7258;50.376;8.742;2023-05-17T01:52:37;5.50;99.90
14349;DHT22;7258;50.376;8.742;2023-05-17T01:54:55;5.50;99.90
14349;DHT22;7258;50.376;8.742;2023-05-17T01:57:05;5.50;99.90
14349;DHT22;7258;50.376;8.742;2023-05-17T01:59:10;5.50;99.90
14349;DHT22;7258;50.376;8.742;2023-05-17T02:01:20;5.50;99.90
14349;DHT22;7258;50.376;8.742;2023-05-17T02:03:28;5.50;99.90
14349;DHT22;7258;50.376;8.742;2023-05-17T02:05:31;5.40;99.90
14349;DHT22;7258;50.376;8.742;2023-05-17T02:07:34;5.40;99.90
14349;DHT22;7258;50.376;8.742;2023-05-17T02:09:42;5.40;99.90
14349;DHT22;7258;50.376;8.742;2023-05-17T02:11:46;5.40;99.90
14349;DHT22;7258;50.376;8.742;2023-05-17T02:13:49;5.40;99.90
14349;DHT22;7258;50.376;8.742;2023-05-17T02:15:58;5.30;99.90
14349;DHT22;7258;50.376;8.742;2023-05-17T02:18:04;5.30;99.90
14349;DHT22;7258;50.376;8.742;2023-05-17T02:20:08;5.30;99.90
14349;DHT22;7258;50.376;8.742;2023-05-17T02:22:12;5.20;99.90
14349;DHT22;7258;50.376;8.742;2023-05-17T02:24:17;5.20;99.90
14349;DHT22;7258;50.376;8.742;2023-05-17T02:26:23;5.20;99.90
14349;DHT22;7258;50.376;8.742;2023-05-17T02:28:26;5.20;99.90
14349;DHT22;7258;50.376;8.742;2023-05-17T02:30:31;5.10;99.90
14349;DHT22;7258;50.376;8.742;2023-05-17T02:32:36;5.10;99.90
14349;DHT22;7258;50.376;8.742;2023-05-17T02:34:39;5.10;99.90
14349;DHT22;7258;50.376;8.742;2023-05-17T02:36:42;5.10;99.90
14349;DHT22;7258;50.376;8.742;2023-05-17T02:38:45;5.00;99.90
14349;DHT22;7258;50.376;8.742;2023-05-17T02:40:48;5.00;99.90
14349;DHT22;7258;50.376;8.742;2023-05-17T02:42:52;5.00;99.90
14349;DHT22;7258;50.376;8.742;2023-05-17T02:44:55;5.00;99.90
14349;DHT22;7258;50.376;8.742;2023-05-17T02:46:58;4.90;99.90
14349;DHT22;7258;50.376;8.742;2023-05-17T02:49:03;4.90;99.90
14349;DHT22;7258;50.376;8.742;2023-05-17T02:51:06;4.90;99.90
14349;DHT22;7258;50.376;8.742;2023-05-17T02:53:09;4.90;99.90
14349;DHT22;7258;50.376;8.742;2023-05-17T02:55:12;4.90;99.90
14349;DHT22;7258;50.376;8.742;2023-05-17T02:57:14;4.90;99.90
14349;DHT22;7258;50.376;8.742;2023-05-17T02:59:17;4.90;99.90
14349;DHT22;7258;50.376;8.742;2023-05-17T03:01:20;4.90;99.90
14349;DHT22;7258;50.376;8.742;2023-05-17T03:03:24;4.90;99.90
14349;DHT22;7258;50.376;8.742;2023-05-17T03:05:28;4.80;99.90
14349;DHT22;7258;50.376;8.742;2023-05-17T03:07:32;4.80;99.90
14349;DHT22;7258;50.376;8.742;2023-05-17T03:09:35;4.80;99.90
14349;DHT22;7258;50.376;8.742;2023-05-17T03:11:38;4.80;99.90
14349;DHT22;7258;50.376;8.742;2023-05-17T03:13:41;4.80;99.90
14349;DHT22;7258;50.376;8.742;2023-05-17T03:15:44;4.70;99.90
14349;DHT22;7258;50.376;8.742;2023-05-17T03:17:47;4.80;99.90
14349;DHT22;7258;50.376;8.742;2023-05-17T03:19:50;4.70;99.90
14349;DHT22;7258;50.376;8.742;2023-05-17T03:21:55;4.70;99.90
14349;DHT22;7258;50.376;8.742;2023-05-17T03:23:58;4.70;99.90
14349;DHT22;7258;50.376;8.742;2023-05-17T03:26:01;4.70;99.90
14349;DHT22;7258;50.376;8.742;2023-05-17T03:28:04;4.70;99.90
14349;DHT22;7258;50.376;8.742;2023-05-17T03:30:08;4.70;99.90
14349;DHT22;7258;50.376;8.742;2023-05-17T03:32:16;4.70;99.90
14349;DHT22;7258;50.376;8.742;2023-05-17T03:34:19;4.70;99.90
14349;DHT22;7258;50.376;8.742;2023-05-17T03:36:24;4.70;99.90
14349;DHT22;7258;50.376;8.742;2023-05-17T03:38:29;4.70;99.90
14349;DHT22;7258;50.376;8.742;2023-05-17T03:40:32;4.60;99.90
14349;DHT22;7258;50.376;8.742;2023-05-17T03:42:39;4.60;99.90
14349;DHT22;7258;50.376;8.742;2023-05-17T03:44:42;4.60;99.90
14349;DHT22;7258;50.376;8.742;2023-05-17T03:46:48;4.60;99.90
14349;DHT22;7258;50.376;8.742;2023-05-17T03:48:55;4.60;99.90
14349;DHT22;7258;50.376;8.742;2023-05-17T03:50:59;4.60;99.90
14349;DHT22;7258;50.376;8.742;2023-05-17T03:53:02;4.60;99.90
14349;DHT22;7258;50.376;8.742;2023-05-17T03:58:21;4.60;99.90
14349;DHT22;7258;50.376;8.742;2023-05-17T04:01:01;4.60;99.90
14349;DHT22;7258;50.376;8.742;2023-05-17T04:07:50;4.60;99.90
14349;DHT22;7258;50.376;8.742;2023-05-17T04:10:17;4.70;99.90
14349;DHT22;7258;50.376;8.742;2023-05-17T04:23:17;4.90;99.90
14349;DHT22;7258;50.376;8.742;2023-05-17T04:30:04;5.10;99.90
14349;DHT22;7258;50.376;8.742;2023-05-17T04:33:03;5.20;99.90
14349;DHT22;7258;50.376;8.742;2023-05-17T04:35:33;5.30;99.90
14349;DHT22;7258;50.376;8.742;2023-05-17T04:38:12;5.30;99.90
14349;DHT22;7258;50.376;8.742;2023-05-17T04:41:04;5.40;99.90
14349;DHT22;7258;50.376;8.742;2023-05-17T04:43:21;5.50;99.90
14349;DHT22;7258;50.376;8.742;2023-05-17T04:45:24;5.60;99.90
14349;DHT22;7258;50.376;8.742;2023-05-17T04:47:27;5.70;99.90
14349;DHT22;7258;50.376;8.742;2023-05-17T04:49:30;5.70;99.90
14349;DHT22;7258;50.376;8.742;2023-05-17T04:51:33;5.80;99.90
14349;DHT22;7258;50.376;8.742;2023-05-17T04:53:36;5.80;99.90
14349;DHT22;7258;50.376;8.742;2023-05-17T04:55:39;5.90;99.90
14349;DHT22;7258;50.376;8.742;2023-05-17T04:57:43;5.90;99.90
14349;DHT22;7258;50.376;8.742;2023-05-17T04:59:46;6.00;99.90
14349;DHT22;7258;50.376;8.742;2023-05-17T05:01:49;6.10;99.90
14349;DHT22;7258;50.376;8.742;2023-05-17T05:03:52;6.20;99.90
14349;DHT22;7258;50.376;8.742;2023-05-17T05:05:55;6.30;99.90
14349;DHT22;7258;50.376;8.742;2023-05-17T05:07:58;6.30;99.90
14349;DHT22;7258;50.376;8.742;2023-05-17T05:10:01;6.40;99.90
14349;DHT22;7258;50.376;8.742;2023-05-17T05:12:05;6.50;99.90
14349;DHT22;7258;50.376;8.742;2023-05-17T05:14:09;6.60;99.90
14349;DHT22;7258;50.376;8.742;2023-05-17T05:16:12;6.70;99.90
14349;DHT22;7258;50.376;8.742;2023-05-17T05:18:15;6.80;99.90
14349;DHT22;7258;50.376;8.742;2023-05-17T05:20:18;6.90;99.90
14349;DHT22;7258;50.376;8.742;2023-05-17T05:22:21;6.90;99.90
14349;DHT22;7258;50.376;8.742;2023-05-17T05:24:24;7.00;99.90
14349;DHT22;7258;50.376;8.742;2023-05-17T05:26:27;7.10;99.90
14349;DHT22;7258;50.376;8.742;2023-05-17T05:28:30;7.20;99.90
14349;DHT22;7258;50.376;8.742;2023-05-17T05:30:34;7.30;99.90
14349;DHT22;7258;50.376;8.742;2023-05-17T05:32:37;7.30;99.90
14349;DHT22;7258;50.376;8.742;2023-05-17T05:34:40;7.40;99.90
14349;DHT22;7258;50.376;8.742;2023-05-17T05:36:43;7.50;99.90
14349;DHT22;7258;50.376;8.742;2023-05-17T05:38:46;7.70;99.90
14349;DHT22;7258;50.376;8.742;2023-05-17T05:40:49;7.90;99.90
14349;DHT22;7258;50.376;8.742;2023-05-17T05:42:52;8.10;99.90
14349;DHT22;7258;50.376;8.742;2023-05-17T05:44:55;8.30;99.90
14349;DHT22;7258;50.376;8.742;2023-05-17T05:47:00;8.60;99.90
14349;DHT22;7258;50.376;8.742;2023-05-17T05:49:03;8.80;99.90
14349;DHT22;7258;50.376;8.742;2023-05-17T05:51:06;8.90;99.90
14349;DHT22;7258;50.376;8.742;2023-05-17T05:53:09;9.00;99.90
14349;DHT22;7258;50.376;8.742;2023-05-17T05:55:20;9.10;99.90
14349;DHT22;7258;50.376;8.742;2023-05-17T05:57:23;9.20;99.90
14349;DHT22;7258;50.376;8.742;2023-05-17T05:59:26;9.30;99.90
14349;DHT22;7258;50.376;8.742;2023-05-17T06:01:29;9.40;99.90
14349;DHT22;7258;50.376;8.742;2023-05-17T06:03:33;9.60;99.90
14349;DHT22;7258;50.376;8.742;2023-05-17T06:05:36;9.80;99.90
14349;DHT22;7258;50.376;8.742;2023-05-17T06:07:42;9.80;99.90
14349;DHT22;7258;50.376;8.742;2023-05-17T06:09:45;10.00;99.90
14349;DHT22;7258;50.376;8.742;2023-05-17T06:11:51;10.10;99.90
14349;DHT22;7258;50.376;8.742;2023-05-17T06:13:54;10.30;99.90
14349;DHT22;7258;50.376;8.742;2023-05-17T06:15:57;10.40;99.90
14349;DHT22;7258;50.376;8.742;2023-05-17T06:18:01;10.50;99.90
14349;DHT22;7258;50.376;8.742;2023-05-17T06:20:07;10.70;99.90
14349;DHT22;7258;50.376;8.742;2023-05-17T06:22:11;11.10;99.90
14349;DHT22;7258;50.376;8.742;2023-05-17T06:24:14;11.30;99.90
14349;DHT22;7258;50.376;8.742;2023-05-17T06:26:17;11.30;99.90
14349;DHT22;7258;50.376;8.742;2023-05-17T06:28:20;11.30;99.90
14349;DHT22;7258;50.376;8.742;2023-05-17T06:30:23;11.30;99.90
14349;DHT22;7258;50.376;8.742;2023-05-17T06:32:28;11.40;99.90
14349;DHT22;7258;50.376;8.742;2023-05-17T06:34:31;11.40;99.90
14349;DHT22;7258;50.376;8.742;2023-05-17T06:36:35;11.50;99.90
14349;DHT22;7258;50.376;8.742;2023-05-17T06:38:39;11.50;99.90
14349;DHT22;7258;50.376;8.742;2023-05-17T06:40:42;11.60;99.90
14349;DHT22;7258;50.376;8.742;2023-05-17T06:42:45;11.70;99.90
14349;DHT22;7258;50.376;8.742;2023-05-17T06:44:49;11.80;99.90
14349;DHT22;7258;50.376;8.742;2023-05-17T06:46:52;11.90;99.90
14349;DHT22;7258;50.376;8.742;2023-05-17T06:48:55;12.00;99.90
14349;DHT22;7258;50.376;8.742;2023-05-17T06:50:58;12.20;99.90
14349;DHT22;7258;50.376;8.742;2023-05-17T06:53:03;12.30;99.90
14349;DHT22;7258;50.376;8.742;2023-05-17T06:55:07;12.30;99.90
14349;DHT22;7258;50.376;8.742;2023-05-17T06:57:10;12.40;99.90
14349;DHT22;7258;50.376;8.742;2023-05-17T06:59:13;12.50;99.90
14349;DHT22;7258;50.376;8.742;2023-05-17T07:01:17;12.60;99.90
14349;DHT22;7258;50.376;8.742;2023-05-17T07:03:21;12.60;99.90
14349;DHT22;7258;50.376;8.742;2023-05-17T07:05:24;12.60;99.90
14349;DHT22;7258;50.376;8.742;2023-05-17T07:07:30;12.60;99.90
14349;DHT22;7258;50.376;8.742;2023-05-17T07:09:34;12.60;99.90
14349;DHT22;7258;50.376;8.742;2023-05-17T07:11:37;12.70;99.90
14349;DHT22;7258;50.376;8.742;2023-05-17T07:13:40;12.70;99.90
14349;DHT22;7258;50.376;8.742;2023-05-17T07:15:43;12.80;99.90
14349;DHT22;7258;50.376;8.742;2023-05-17T07:17:46;12.80;99.90
14349;DHT22;7258;50.376;8.742;2023-05-17T07:19:49;12.80;99.90
14349;DHT22;7258;50.376;8.742;2023-05-17T07:21:52;12.80;99.90
14349;DHT22;7258;50.376;8.742;2023-05-17T07:23:55;12.90;99.90
14349;DHT22;7258;50.376;8.742;2023-05-17T07:26:00;12.80;99.90
14349;DHT22;7258;50.376;8.742;2023-05-17T07:28:03;12.90;99.90
14349;DHT22;7258;50.376;8.742;2023-05-17T07:30:07;12.80;99.90
14349;DHT22;7258;50.376;8.742;2023-05-17T07:32:10;12.70;99.90
14349;DHT22;7258;50.376;8.742;2023-05-17T07:34:13;12.70;99.90
14349;DHT22;7258;50.376;8.742;2023-05-17T07:36:16;12.60;99.90
14349;DHT22;7258;50.376;8.742;2023-05-17T07:38:19;12.70;99.90
14349;DHT22;7258;50.376;8.742;2023-05-17T07:40:23;12.80;99.90
14349;DHT22;7258;50.376;8.742;2023-05-17T07:42:27;12.80;99.90
14349;DHT22;7258;50.376;8.742;2023-05-17T07:44:30;12.90;99.90
14349;DHT22;7258;50.376;8.742;2023-05-17T07:46:33;12.90;99.90
14349;DHT22;7258;50.376;8.742;2023-05-17T07:48:37;12.80;99.90
14349;DHT22;7258;50.376;8.742;2023-05-17T07:50:40;12.80;99.90
14349;DHT22;7258;50.376;8.742;2023-05-17T07:52:47;12.80;99.90
14349;DHT22;7258;50.376;8.742;2023-05-17T07:54:50;12.70;99.90
14349;DHT22;7258;50.376;8.742;2023-05-17T07:56:53;12.70;99.90
14349;DHT22;7258;50.376;8.742;2023-05-17T07:58:58;12.70;99.90
14349;DHT22;7258;50.376;8.742;2023-05-17T08:01:01;12.60;99.90
14349;DHT22;7258;50.376;8.742;2023-05-17T08:03:06;12.50;99.90
14349;DHT22;7258;50.376;8.742;2023-05-17T08:05:09;12.40;99.90
14349;DHT22;7258;50.376;8.742;2023-05-17T08:07:12;12.40;99.90
14349;DHT22;7258;50.376;8.742;2023-05-17T08:09:15;12.40;99.90
14349;DHT22;7258;50.376;8.742;2023-05-17T08:11:19;12.40;99.90
14349;DHT22;7258;50.376;8.742;2023-05-17T08:13:22;12.50;99.90
14349;DHT22;7258;50.376;8.742;2023-05-17T08:15:27;12.60;99.90
14349;DHT22;7258;50.376;8.742;2023-05-17T08:17:31;13.00;99.90
14349;DHT22;7258;50.376;8.742;2023-05-17T08:19:35;13.50;99.90
14349;DHT22;7258;50.376;8.742;2023-05-17T08:21:38;13.90;99.90
14349;DHT22;7258;50.376;8.742;2023-05-17T08:23:48;14.20;99.90
14349;DHT22;7258;50.376;8.742;2023-05-17T08:25:52;14.40;99.90
14349;DHT22;7258;50.376;8.742;2023-05-17T08:27:55;14.60;99.90
14349;DHT22;7258;50.376;8.742;2023-05-17T08:29:58;14.60;99.90
14349;DHT22;7258;50.376;8.742;2023-05-17T08:32:09;14.60;99.70
14349;DHT22;7258;50.376;8.742;2023-05-17T08:34:12;14.70;99.90
14349;DHT22;7258;50.376;8.742;2023-05-17T08:36:15;14.80;99.90
14349;DHT22;7258;50.376;8.742;2023-05-17T08:38:21;14.80;99.90
14349;DHT22;7258;50.376;8.742;2023-05-17T08:40:24;14.80;99.90
14349;DHT22;7258;50.376;8.742;2023-05-17T08:42:29;14.90;99.80
14349;DHT22;7258;50.376;8.742;2023-05-17T08:44:33;14.90;99.80
14349;DHT22;7258;50.376;8.742;2023-05-17T08:46:37;14.80;99.20
14349;DHT22;7258;50.376;8.742;2023-05-17T08:48:49;14.70;99.40
14349;DHT22;7258;50.376;8.742;2023-05-17T08:50:53;14.70;99.60
14349;DHT22;7258;50.376;8.742;2023-05-17T08:52:58;14.70;99.80
14349;DHT22;7258;50.376;8.742;2023-05-17T08:55:02;14.90;99.90
14349;DHT22;7258;50.376;8.742;2023-05-17T08:57:09;15.00;99.40
14349;DHT22;7258;50.376;8.742;2023-05-17T08:59:14;15.00;98.10
14349;DHT22;7258;50.376;8.742;2023-05-17T09:01:18;15.00;97.60
14349;DHT22;7258;50.376;8.742;2023-05-17T09:03:23;14.90;97.70
14349;DHT22;7258;50.376;8.742;2023-05-17T09:05:29;14.80;98.10
14349;DHT22;7258;50.376;8.742;2023-05-17T09:07:32;14.80;98.30
14349;DHT22;7258;50.376;8.742;2023-05-17T09:09:38;14.70;98.30
14349;DHT22;7258;50.376;8.742;2023-05-17T09:11:42;14.50;98.80
14349;DHT22;7258;50.376;8.742;2023-05-17T09:13:46;14.40;99.00
14349;DHT22;7258;50.376;8.742;2023-05-17T09:15:49;14.20;99.00
14349;DHT22;7258;50.376;8.742;2023-05-17T09:17:52;14.00;99.30
14349;DHT22;7258;50.376;8.742;2023-05-17T09:19:56;13.90;99.50
14349;DHT22;7258;50.376;8.742;2023-05-17T09:22:03;14.10;99.30
14349;DHT22;7258;50.376;8.742;2023-05-17T09:24:07;14.30;99.40
14349;DHT22;7258;50.376;8.742;2023-05-17T09:26:10;14.70;99.60
14349;DHT22;7258;50.376;8.742;2023-05-17T09:28:14;15.10;99.10
14349;DHT22;7258;50.376;8.742;2023-05-17T09:30:26;15.50;98.80
14349;DHT22;7258;50.376;8.742;2023-05-17T09:32:32;15.70;96.50
14349;DHT22;7258;50.376;8.742;2023-05-17T09:34:36;15.80;96.40
14349;DHT22;7258;50.376;8.742;2023-05-17T09:36:41;16.00;96.50
14349;DHT22;7258;50.376;8.742;2023-05-17T09:38:53;16.10;96.80
14349;DHT22;7258;50.376;8.742;2023-05-17T09:40:56;16.20;97.40
14349;DHT22;7258;50.376;8.742;2023-05-17T09:42:59;15.80;95.80
14349;DHT22;7258;50.376;8.742;2023-05-17T09:45:03;15.40;95.30
14349;DHT22;7258;50.376;8.742;2023-05-17T09:47:09;15.20;96.10
14349;DHT22;7258;50.376;8.742;2023-05-17T09:49:12;15.10;96.10
14349;DHT22;7258;50.376;8.742;2023-05-17T09:51:17;15.10;96.30
14349;DHT22;7258;50.376;8.742;2023-05-17T09:53:24;15.10;96.00
14349;DHT22;7258;50.376;8.742;2023-05-17T09:55:29;15.20;96.00
14349;DHT22;7258;50.376;8.742;2023-05-17T09:57:37;15.40;96.30
14349;DHT22;7258;50.376;8.742;2023-05-17T09:59:50;15.40;96.00
14349;DHT22;7258;50.376;8.742;2023-05-17T10:01:58;15.40;95.50
14349;DHT22;7258;50.376;8.742;2023-05-17T10:04:03;15.50;96.00
14349;DHT22;7258;50.376;8.742;2023-05-17T10:06:16;15.50;94.20
14349;DHT22;7258;50.376;8.742;2023-05-17T10:08:25;15.50;94.20
14349;DHT22;7258;50.376;8.742;2023-05-17T10:10:34;15.40;94.00
14349;DHT22;7258;50.376;8.742;2023-05-17T10:12:38;15.30;93.90
14349;DHT22;7258;50.376;8.742;2023-05-17T10:14:52;15.20;94.40
14349;DHT22;7258;50.376;8.742;2023-05-17T10:17:09;15.10;94.30
14349;DHT22;7258;50.376;8.742;2023-05-17T10:19:13;15.20;94.80
14349;DHT22;7258;50.376;8.742;2023-05-17T10:21:21;15.60;94.90
14349;DHT22;7258;50.376;8.742;2023-05-17T10:23:25;16.00;93.90
14349;DHT22;7258;50.376;8.742;2023-05-17T10:25:40;16.20;91.70
14349;DHT22;7258;50.376;8.742;2023-05-17T10:27:50;16.20;92.10
14349;DHT22;7258;50.376;8.742;2023-05-17T10:29:53;16.20;92.50
14349;DHT22;7258;50.376;8.742;2023-05-17T10:32:02;15.90;92.50
14349;DHT22;7258;50.376;8.742;2023-05-17T10:34:07;15.70;92.40
14349;DHT22;7258;50.376;8.742;2023-05-17T10:36:13;15.70;92.80
14349;DHT22;7258;50.376;8.742;2023-05-17T10:38:18;15.80;92.80
14349;DHT22;7258;50.376;8.742;2023-05-17T10:40:28;16.00;92.90
14349;DHT22;7258;50.376;8.742;2023-05-17T10:42:34;16.10;92.50
14349;DHT22;7258;50.376;8.742;2023-05-17T10:44:40;16.20;91.80
14349;DHT22;7258;50.376;8.742;2023-05-17T10:46:50;16.10;91.80
14349;DHT22;7258;50.376;8.742;2023-05-17T10:48:56;16.00;91.70
14349;DHT22;7258;50.376;8.742;2023-05-17T10:51:05;15.90;92.20
14349;DHT22;7258;50.376;8.742;2023-05-17T10:53:08;16.00;92.40
14349;DHT22;7258;50.376;8.742;2023-05-17T10:55:13;16.10;91.70
14349;DHT22;7258;50.376;8.742;2023-05-17T10:57:21;16.00;90.50
14349;DHT22;7258;50.376;8.742;2023-05-17T10:59:56;15.90;90.80
14349;DHT22;7258;50.376;8.742;2023-05-17T11:02:02;15.90;90.60
14349;DHT22;7258;50.376;8.742;2023-05-17T11:04:19;16.00;91.20
14349;DHT22;7258;50.376;8.742;2023-05-17T11:06:23;16.00;90.50
14349;DHT22;7258;50.376;8.742;2023-05-17T11:08:27;16.00;90.40
14349;DHT22;7258;50.376;8.742;2023-05-17T11:10:34;16.10;90.80
14349;DHT22;7258;50.376;8.742;2023-05-17T11:12:39;16.00;90.70
14349;DHT22;7258;50.376;8.742;2023-05-17T11:14:46;16.00;90.90
14349;DHT22;7258;50.376;8.742;2023-05-17T11:16:56;16.10;90.80
14349;DHT22;7258;50.376;8.742;2023-05-17T11:19:06;16.20;91.70
14349;DHT22;7258;50.376;8.742;2023-05-17T11:21:12;16.30;91.10
14349;DHT22;7258;50.376;8.742;2023-05-17T11:23:24;16.50;90.30
14349;DHT22;7258;50.376;8.742;2023-05-17T11:25:31;16.60;90.60
14349;DHT22;7258;50.376;8.742;2023-05-17T11:27:42;16.70;90.20
14349;DHT22;7258;50.376;8.742;2023-05-17T11:29:46;16.80;89.80
14349;DHT22;7258;50.376;8.742;2023-05-17T11:31:51;16.90;89.10
14349;DHT22;7258;50.376;8.742;2023-05-17T11:33:57;17.00;88.80
14349;DHT22;7258;50.376;8.742;2023-05-17T11:36:04;17.10;90.20
14349;DHT22;7258;50.376;8.742;2023-05-17T11:38:29;17.20;89.90
14349;DHT22;7258;50.376;8.742;2023-05-17T11:40:39;17.10;90.20
14349;DHT22;7258;50.376;8.742;2023-05-17T11:42:43;17.20;89.00
14349;DHT22;7258;50.376;8.742;2023-05-17T11:44:55;17.30;89.60
14349;DHT22;7258;50.376;8.742;2023-05-17T11:47:06;17.30;88.80
14349;DHT22;7258;50.376;8.742;2023-05-17T11:49:12;17.30;87.50
14349;DHT22;7258;50.376;8.742;2023-05-17T11:51:40;17.30;87.00
14349;DHT22;7258;50.376;8.742;2023-05-17T11:53:56;17.20;89.00
14349;DHT22;7258;50.376;8.742;2023-05-17T11:56:01;17.20;89.20
14349;DHT22;7258;50.376;8.742;2023-05-17T11:58:07;17.20;89.10
14349;DHT22;7258;50.376;8.742;2023-05-17T12:00:14;17.30;89.40
14349;DHT22;7258;50.376;8.742;2023-05-17T12:02:29;17.40;87.00
14349;DHT22;7258;50.376;8.742;2023-05-17T12:04:36;17.40;86.90
14349;DHT22;7258;50.376;8.742;2023-05-17T12:06:39;17.30;86.80
14349;DHT22;7258;50.376;8.742;2023-05-17T12:08:47;17.20;87.20
14349;DHT22;7258;50.376;8.742;2023-05-17T12:10:51;17.40;89.40
14349;DHT22;7258;50.376;8.742;2023-05-17T12:12:58;17.40;89.60
14349;DHT22;7258;50.376;8.742;2023-05-17T12:15:01;17.50;87.10
14349;DHT22;7258;50.376;8.742;2023-05-17T12:17:07;17.60;87.60
14349;DHT22;7258;50.376;8.742;2023-05-17T12:19:17;17.70;88.00
14349;DHT22;7258;50.376;8.742;2023-05-17T12:21:22;17.70;87.60
14349;DHT22;7258;50.376;8.742;2023-05-17T12:23:28;17.80;87.70
14349;DHT22;7258;50.376;8.742;2023-05-17T12:25:31;18.00;87.50
14349;DHT22;7258;50.376;8.742;2023-05-17T12:27:34;17.90;88.20
14349;DHT22;7258;50.376;8.742;2023-05-17T12:29:37;17.80;87.70
14349;DHT22;7258;50.376;8.742;2023-05-17T12:31:43;17.60;87.10
14349;DHT22;7258;50.376;8.742;2023-05-17T12:33:48;17.40;86.60
14349;DHT22;7258;50.376;8.742;2023-05-17T12:35:51;17.10;86.90
14349;DHT22;7258;50.376;8.742;2023-05-17T12:37:56;16.90;87.80
14349;DHT22;7258;50.376;8.742;2023-05-17T12:39:59;16.90;86.70
14349;DHT22;7258;50.376;8.742;2023-05-17T12:42:06;17.10;88.00
14349;DHT22;7258;50.376;8.742;2023-05-17T12:44:18;17.20;86.40
14349;DHT22;7258;50.376;8.742;2023-05-17T12:46:25;17.40;86.50
14349;DHT22;7258;50.376;8.742;2023-05-17T12:48:32;17.60;85.90
14349;DHT22;7258;50.376;8.742;2023-05-17T12:50:36;17.60;86.90
14349;DHT22;7258;50.376;8.742;2023-05-17T12:52:42;17.60;87.10
14349;DHT22;7258;50.376;8.742;2023-05-17T12:54:50;17.70;87.30
14349;DHT22;7258;50.376;8.742;2023-05-17T12:57:19;17.70;87.30
14349;DHT22;7258;50.376;8.742;2023-05-17T12:59:25;17.80;85.70
14349;DHT22;7258;50.376;8.742;2023-05-17T13:01:32;18.00;87.00
14349;DHT22;7258;50.376;8.742;2023-05-17T13:03:39;18.20;87.90
14349;DHT22;7258;50.376;8.742;2023-05-17T13:05:45;18.30;86.90
14349;DHT22;7258;50.376;8.742;2023-05-17T13:08:20;18.50;85.90
14349;DHT22;7258;50.376;8.742;2023-05-17T13:10:35;18.40;83.80
14349;DHT22;7258;50.376;8.742;2023-05-17T13:12:41;18.30;82.30
14349;DHT22;7258;50.376;8.742;2023-05-17T13:14:45;18.10;82.90
14349;DHT22;7258;50.376;8.742;2023-05-17T13:16:55;18.00;84.80
14349;DHT22;7258;50.376;8.742;2023-05-17T13:18:59;18.00;84.50
14349;DHT22;7258;50.376;8.742;2023-05-17T13:21:02;17.90;82.70
14349;DHT22;7258;50.376;8.742;2023-05-17T13:23:20;17.70;84.90
14349;DHT22;7258;50.376;8.742;2023-05-17T13:25:25;17.90;85.70
14349;DHT22;7258;50.376;8.742;2023-05-17T13:27:28;18.00;84.50
14349;DHT22;7258;50.376;8.742;2023-05-17T13:29:32;18.10;86.00
14349;DHT22;7258;50.376;8.742;2023-05-17T13:31:41;18.20;84.70
14349;DHT22;7258;50.376;8.742;2023-05-17T13:33:45;18.40;84.40
14349;DHT22;7258;50.376;8.742;2023-05-17T13:35:59;18.50;83.20
14349;DHT22;7258;50.376;8.742;2023-05-17T13:38:03;18.50;83.40
14349;DHT22;7258;50.376;8.742;2023-05-17T13:40:08;18.50;83.10
14349;DHT22;7258;50.376;8.742;2023-05-17T13:42:13;18.60;85.00
14349;DHT22;7258;50.376;8.742;2023-05-17T13:44:16;18.40;82.70
14349;DHT22;7258;50.376;8.742;2023-05-17T13:46:19;18.40;83.30
14349;DHT22;7258;50.376;8.742;2023-05-17T13:48:24;18.40;83.00
14349;DHT22;7258;50.376;8.742;2023-05-17T13:50:27;18.40;81.20
14349;DHT22;7258;50.376;8.742;2023-05-17T13:52:31;18.50;80.80
14349;DHT22;7258;50.376;8.742;2023-05-17T13:54:34;18.60;81.80
14349;DHT22;7258;50.376;8.742;2023-05-17T13:56:37;18.60;82.50
14349;DHT22;7258;50.376;8.742;2023-05-17T13:58:45;18.70;82.30
14349;DHT22;7258;50.376;8.742;2023-05-17T14:00:49;18.90;81.50